createdAt,value
2022-12-19T00:02:36.781Z,6.43
2022-12-19T00:06:46.025Z,7.13
2022-12-19T00:10:59.450Z,6.97
2022-12-19T00:15:11.312Z,7.37
2022-12-19T00:19:20.646Z,7.80
2022-12-19T00:23:33.066Z,6.63
2022-12-19T00:27:42.186Z,6.70
2022-12-19T00:31:52.869Z,8.20
2022-12-19T00:36:03.009Z,7.37
2022-12-19T00:40:13.427Z,7.30
2022-12-19T00:44:22.626Z,7.10
2022-12-19T00:48:33.545Z,7.27
2022-12-19T00:52:42.687Z,6.33
2022-12-19T00:56:51.847Z,7.80
2022-12-19T01:01:00.988Z,6.67
2022-12-19T01:05:12.087Z,6.97
2022-12-19T01:09:21.968Z,6.90
2022-12-19T01:13:33.389Z,6.70
2022-12-19T01:17:45.126Z,6.23
2022-12-19T01:21:56.288Z,6.43
2022-12-19T01:26:06.087Z,6.00
2022-12-19T01:30:15.708Z,6.40
2022-12-19T01:34:26.125Z,7.30
2022-12-19T01:38:37.750Z,7.03
2022-12-19T01:42:46.848Z,6.30
2022-12-19T01:46:59.488Z,7.30
2022-12-19T01:51:15.308Z,7.33
2022-12-19T01:55:27.026Z,6.10
2022-12-19T01:59:39.656Z,6.30
2022-12-19T02:03:50.534Z,5.93
2022-12-19T02:08:00.515Z,6.63
2022-12-19T02:12:11.416Z,6.57
2022-12-19T02:16:31.532Z,6.37
2022-12-19T02:21:23.139Z,6.40
2022-12-19T02:25:56.680Z,5.93
2022-12-19T02:30:12.260Z,6.63
2022-12-19T02:34:29.833Z,6.47
2022-12-19T02:38:45.431Z,6.00
2022-12-19T02:43:01.497Z,6.03
2022-12-19T02:47:12.353Z,6.87
2022-12-19T02:51:24.199Z,6.57
2022-12-19T02:55:44.645Z,7.60
2022-12-19T03:00:05.626Z,6.77
2022-12-19T03:04:24.107Z,6.10
2022-12-19T03:08:46.565Z,6.60
2022-12-19T03:13:01.106Z,6.77
2022-12-19T03:17:11.533Z,7.00
2022-12-19T03:21:25.170Z,6.50
2022-12-19T03:25:36.572Z,7.00
2022-12-19T03:29:52.474Z,8.23
2022-12-19T03:34:04.262Z,6.87
2022-12-19T03:38:15.859Z,5.17
2022-12-19T03:42:46.240Z,5.73
2022-12-19T03:47:01.820Z,5.30
2022-12-19T03:51:23.939Z,5.47
2022-12-19T03:55:39.219Z,5.73
2022-12-19T04:00:02.088Z,6.37
2022-12-19T04:04:15.380Z,5.90
2022-12-19T04:08:26.125Z,6.50
2022-12-19T04:12:39.368Z,5.47
2022-12-19T04:16:55.220Z,5.67
2022-12-19T04:21:10.021Z,5.17
2022-12-19T04:25:29.038Z,5.73
2022-12-19T04:29:40.283Z,6.30
2022-12-19T04:33:52.802Z,5.00
2022-12-19T04:38:02.227Z,5.03
2022-12-19T04:42:11.921Z,5.27
2022-12-19T04:46:22.143Z,5.90
2022-12-19T04:50:35.120Z,6.47
2022-12-19T04:54:44.879Z,4.93
2022-12-19T04:58:58.917Z,5.73
2022-12-19T05:03:09.133Z,4.63
2022-12-19T05:07:21.299Z,6.97
2022-12-19T05:11:30.563Z,5.90
2022-12-19T05:15:39.793Z,6.50
2022-12-19T05:19:50.018Z,5.63
2022-12-19T05:24:01.336Z,5.00
2022-12-19T05:28:11.656Z,5.20
2022-12-19T05:32:21.579Z,5.67
2022-12-19T05:36:32.619Z,5.87
2022-12-19T05:40:48.521Z,6.43
2022-12-19T05:44:58.239Z,6.33
2022-12-19T05:49:07.475Z,5.73
2022-12-19T05:53:17.566Z,6.80
2022-12-19T05:57:30.455Z,5.93
2022-12-19T06:01:39.813Z,6.53
2022-12-19T06:05:49.180Z,5.83
2022-12-19T06:09:58.271Z,6.07
2022-12-19T06:14:08.918Z,7.30
2022-12-19T06:18:18.192Z,7.80
2022-12-19T06:22:27.412Z,7.90
2022-12-19T06:26:36.552Z,6.40
2022-12-19T06:30:47.292Z,6.90
2022-12-19T06:35:04.107Z,6.53
2022-12-19T06:39:16.157Z,6.83
2022-12-19T06:43:27.611Z,6.63
2022-12-19T06:47:38.250Z,5.43
2022-12-19T06:51:47.730Z,7.17
2022-12-19T06:55:59.899Z,7.87
2022-12-19T07:00:10.671Z,5.27
2022-12-19T07:04:24.968Z,6.13
2022-12-19T07:08:34.568Z,5.63
2022-12-19T07:12:43.793Z,5.70
2022-12-19T07:16:54.992Z,5.60
2022-12-19T07:21:07.849Z,5.80
2022-12-19T07:25:18.428Z,5.67
2022-12-19T07:29:28.509Z,5.67
2022-12-19T07:33:37.733Z,6.30
2022-12-19T07:37:48.527Z,6.83
2022-12-19T07:41:58.049Z,6.90
2022-12-19T07:46:07.481Z,6.63
2022-12-19T07:50:16.869Z,7.43
2022-12-19T07:54:27.687Z,7.23
2022-12-19T07:58:36.807Z,7.00
2022-12-19T08:02:46.313Z,6.20
2022-12-19T08:06:55.806Z,5.97
2022-12-19T08:11:17.587Z,6.30
2022-12-19T08:15:26.807Z,6.57
2022-12-19T08:19:35.894Z,6.03
2022-12-19T08:23:46.891Z,6.73
2022-12-19T08:27:58.608Z,5.60
2022-12-19T08:32:08.791Z,4.90
2022-12-19T08:36:23.375Z,5.50
2022-12-19T08:40:32.748Z,6.47
2022-12-19T08:44:51.849Z,7.20
2022-12-19T08:49:01.497Z,6.03
2022-12-19T08:53:12.186Z,5.70
2022-12-19T08:57:22.109Z,5.50
2022-12-19T09:01:33.871Z,5.93
2022-12-19T09:05:57.825Z,5.23
2022-12-19T09:10:17.074Z,5.53
2022-12-19T09:14:35.725Z,6.20
2022-12-19T09:19:07.031Z,5.97
2022-12-19T09:28:28.489Z,6.27
2022-12-19T09:32:40.943Z,5.63
2022-12-19T09:42:17.090Z,5.93
2022-12-19T09:46:36.668Z,5.60
2022-12-19T10:21:00.613Z,5.87
2022-12-19T10:30:17.651Z,6.20
2022-12-19T12:52:04.851Z,7.17
2022-12-19T15:23:05.406Z,5.93
2022-12-19T15:27:44.995Z,6.03
2022-12-19T15:32:51.013Z,5.57
2022-12-19T15:56:11.472Z,6.13
2022-12-19T16:10:19.171Z,6.70
2022-12-19T16:14:34.471Z,5.77
2022-12-19T16:18:47.751Z,7.17
2022-12-19T16:22:57.269Z,6.83
2022-12-19T16:27:08.550Z,7.57
2022-12-19T16:31:25.838Z,6.50
2022-12-19T16:36:03.052Z,6.37
2022-12-19T16:40:04.936Z,7.63
2022-12-19T16:44:19.423Z,6.47
2022-12-19T17:55:18.253Z,5.87
2022-12-19T18:05:10.569Z,5.63
2022-12-19T18:09:37.513Z,6.43
2022-12-19T18:23:54.010Z,6.07
2022-12-19T18:28:06.411Z,6.93
2022-12-19T18:32:21.250Z,8.40
2022-12-19T18:36:31.652Z,7.53
2022-12-19T18:40:41.330Z,7.53
2022-12-19T18:44:50.608Z,7.07
2022-12-19T18:49:01.811Z,8.47
2022-12-19T18:53:13.835Z,6.97
2022-12-19T18:57:22.973Z,6.80
2022-12-19T19:01:32.282Z,7.57
2022-12-19T19:05:44.149Z,6.43
2022-12-19T19:09:53.350Z,7.07
2022-12-19T19:14:02.509Z,6.67
2022-12-19T19:18:11.716Z,6.30
2022-12-19T19:22:22.389Z,6.17
2022-12-19T19:26:31.595Z,5.97
2022-12-19T19:30:42.070Z,5.00
2022-12-19T19:34:51.639Z,4.70
2022-12-19T19:39:02.543Z,5.70
2022-12-19T19:43:11.709Z,4.50
2022-12-19T19:47:26.885Z,5.60
2022-12-19T19:51:36.210Z,4.80
2022-12-19T19:55:46.810Z,5.20
2022-12-19T19:59:56.109Z,7.53
2022-12-19T20:04:05.745Z,8.67
2022-12-19T20:08:15.567Z,9.00
2022-12-19T20:12:26.368Z,9.23
2022-12-19T20:16:36.383Z,9.07
2022-12-19T20:20:48.968Z,8.27
2022-12-19T20:24:58.786Z,7.47
2022-12-19T20:29:11.750Z,8.00
2022-12-19T20:33:21.108Z,9.43
2022-12-19T20:37:30.933Z,9.50
2022-12-19T20:41:40.628Z,9.87
2022-12-19T20:46:02.254Z,9.03
2022-12-19T20:50:16.197Z,8.43
2022-12-19T20:54:28.390Z,6.60
2022-12-19T20:58:40.561Z,8.20
2022-12-19T21:07:26.568Z,6.47
2022-12-19T21:11:42.707Z,6.27
2022-12-19T21:16:02.407Z,5.73
2022-12-19T21:20:17.850Z,6.10
2022-12-19T21:24:38.231Z,5.53
2022-12-19T21:28:49.054Z,6.67
2022-12-19T21:32:58.571Z,6.47
2022-12-19T21:37:09.452Z,6.33
2022-12-19T21:41:20.344Z,7.60
2022-12-19T21:45:30.765Z,7.97
2022-12-19T21:50:16.769Z,6.30
2022-12-19T21:54:34.700Z,6.50
2022-12-19T21:58:44.377Z,7.60
2022-12-19T22:03:13.434Z,7.57
2022-12-19T22:07:24.135Z,6.40
2022-12-19T22:11:57.871Z,7.17
2022-12-19T22:16:10.184Z,7.03
2022-12-19T22:20:21.612Z,6.87
2022-12-19T22:24:32.373Z,6.50
2022-12-19T22:28:53.116Z,6.80
2022-12-19T22:33:02.593Z,6.07
2022-12-19T22:37:13.657Z,6.87
2022-12-19T22:41:23.380Z,7.43
2022-12-19T22:45:35.706Z,9.10
2022-12-19T22:49:45.916Z,8.10
2022-12-19T22:53:55.773Z,7.67
2022-12-19T22:58:05.493Z,7.07
2022-12-19T23:02:16.761Z,7.40
2022-12-19T23:06:34.286Z,6.83
2022-12-19T23:10:43.854Z,7.73
2022-12-19T23:14:58.735Z,7.63
2022-12-19T23:19:14.095Z,7.03
2022-12-19T23:23:25.973Z,7.03
2022-12-19T23:27:39.775Z,6.90
2022-12-19T23:31:51.396Z,7.00
2022-12-19T23:37:00.435Z,7.13
2022-12-19T23:40:54.875Z,6.57
2022-12-19T23:45:06.554Z,6.63
2022-12-19T23:49:20.834Z,5.90
2022-12-19T23:53:40.215Z,7.07
2022-12-19T23:57:49.584Z,5.83
